Time;durP1;ratioP1;P1;durP2;ratioP2;P2;SDS_P1;SDS_P2;PMS_P1;PMS_P2;Temp;Humidity;BMP_temperature;BMP_pressure;BME280_temperature;BME280_humidity;BME280_pressure;Samples;Min_cycle;Max_cycle;Signal;HPM_P1;HPM_P2
2022/08/29 00:01:16;;;;;;;6.53;2.92;;;;;;;14.03;82.58;102114.53;5049356;28;20175;-78
2022/08/29 00:03:42;;;;;;;6.88;3.22;;;;;;;14.00;82.73;102109.41;5048952;28;20025;-78
2022/08/29 00:06:07;;;;;;;6.47;2.65;;;;;;;13.98;82.86;102111.31;5047451;28;20027;-77
2022/08/29 00:08:32;;;;;;;5.70;3.08;;;;;;;14.01;83.01;102111.16;5049635;28;20051;-79
2022/08/29 00:10:58;;;;;;;6.00;2.90;;;;;;;13.91;82.70;102112.69;5080091;28;20048;-79
2022/08/29 00:13:23;;;;;;;7.78;3.53;;;;;;;13.92;83.09;102117.88;5048406;28;20382;-79
2022/08/29 00:15:48;;;;;;;8.68;3.70;;;;;;;13.94;83.51;102115.13;5049427;28;20394;-79
2022/08/29 00:18:15;;;;;;;6.93;3.35;;;;;;;13.84;83.73;102119.34;5047936;28;20543;-78
2022/08/29 00:20:41;;;;;;;7.68;3.78;;;;;;;13.87;83.67;102113.84;5049138;28;20306;-78
2022/08/29 00:23:08;;;;;;;8.80;4.13;;;;;;;13.89;83.50;102111.97;5047187;28;20020;-77
2022/08/29 00:25:33;;;;;;;7.03;4.15;;;;;;;13.82;83.49;102108.03;5048603;28;20017;-78
2022/08/29 00:27:59;;;;;;;10.18;4.80;;;;;;;13.83;83.51;102109.72;5080949;28;20020;-76
2022/08/29 00:30:24;;;;;;;8.48;4.78;;;;;;;13.76;83.70;102106.66;5048326;28;20368;-78
2022/08/29 00:32:54;;;;;;;10.50;5.40;;;;;;;13.74;83.62;102104.09;5047386;28;20104;-77
2022/08/29 00:35:24;;;;;;;11.00;5.22;;;;;;;13.69;83.79;102106.22;5048225;28;20028;-78
2022/08/29 00:37:50;;;;;;;7.72;4.80;;;;;;;13.62;83.75;102110.22;5047375;28;20100;-78
2022/08/29 00:40:20;;;;;;;8.43;4.63;;;;;;;13.62;83.93;102110.22;5049183;28;20841;-78
2022/08/29 00:42:46;;;;;;;8.50;5.03;;;;;;;13.53;84.41;102110.81;5049360;28;20056;-82
2022/08/29 00:45:14;;;;;;;7.57;4.95;;;;;;;13.57;84.41;102117.59;5048404;28;20057;-83
2022/08/29 00:47:44;;;;;;;9.95;5.03;;;;;;;13.47;85.22;102117.34;5050648;28;20078;-83
2022/08/29 00:50:21;;;;;;;10.43;5.20;;;;;;;13.40;85.15;102115.22;5049237;28;20044;-83
2022/08/29 00:52:47;;;;;;;7.70;4.80;;;;;;;13.36;84.96;102111.09;5049600;28;20021;-82
2022/08/29 00:55:18;;;;;;;8.30;4.78;;;;;;;13.30;85.20;102109.69;5049328;28;20023;-83
2022/08/29 00:57:46;;;;;;;7.65;5.20;;;;;;;13.21;85.12;102109.41;5047477;28;20029;-82
2022/08/29 01:00:13;;;;;;;7.28;5.25;;;;;;;13.20;85.29;102110.38;5048411;28;20493;-83
2022/08/29 01:02:40;;;;;;;12.45;5.88;;;;;;;13.07;85.55;102110.28;5047304;28;20025;-83
2022/08/29 01:05:11;;;;;;;13.13;5.40;;;;;;;13.10;85.88;102115.38;5079932;28;20078;-83
2022/08/29 01:07:37;;;;;;;9.95;5.38;;;;;;;13.09;85.71;102111.88;5046781;28;20264;-82
2022/08/29 01:10:04;;;;;;;8.52;5.40;;;;;;;13.09;85.39;102114.53;5066240;28;20064;-83
2022/08/29 01:12:30;;;;;;;11.68;6.45;;;;;;;13.06;85.70;102122.66;5043280;28;20074;-83
2022/08/29 01:15:01;;;;;;;9.82;5.95;;;;;;;13.08;85.14;102127.84;5046272;28;20025;-83
2022/08/29 01:17:30;;;;;;;10.68;6.72;;;;;;;13.02;85.90;102121.16;5047321;28;20036;-83
2022/08/29 01:20:01;;;;;;;9.63;6.10;;;;;;;12.97;nan;102117.13;5047167;28;20033;-83
2022/08/29 01:22:55;;;;;;;12.40;6.63;;;;;;;12.97;86.60;102131.16;5040615;28;20025;-82
2022/08/29 01:25:23;;;;;;;15.18;7.28;;;;;;;12.85;87.16;102129.31;5046479;28;20478;-83
2022/08/29 01:28:04;;;;;;;17.33;6.78;;;;;;;12.86;86.76;102123.94;5047793;28;20033;-82
2022/08/29 01:30:29;;;;;;;11.18;6.72;;;;;;;12.84;86.69;102119.69;5046896;28;20479;-82
2022/08/29 01:32:56;;;;;;;11.52;6.53;;;;;;;12.76;87.15;102114.88;5047802;28;20017;-82
2022/08/29 01:35:23;;;;;;;9.93;6.28;;;;;;;12.72;87.22;102120.44;5044637;28;20187;-82
2022/08/29 01:37:49;;;;;;;11.40;7.03;;;;;;;12.71;87.25;102116.09;5048519;28;20029;-82
2022/08/29 01:40:14;;;;;;;10.45;6.22;;;;;;;12.68;87.31;102103.09;5046268;28;20028;-82
2022/08/29 01:42:40;;;;;;;12.07;7.63;;;;;;;12.62;88.54;102100.84;5047511;28;20021;-82
2022/08/29 01:45:06;;;;;;;8.82;6.60;;;;;;;12.66;87.28;102103.19;5047449;28;20045;-83
2022/08/29 01:47:34;;;;;;;12.60;6.82;;;;;;;12.59;87.63;102114.25;5050629;28;20025;-83
2022/08/29 01:50:00;;;;;;;13.70;6.55;;;;;;;12.61;87.43;102112.34;5050277;28;20112;-82
2022/08/29 01:52:26;;;;;;;9.65;6.80;;;;;;;12.59;87.76;102111.59;5053411;28;20070;-82
2022/08/29 01:54:52;;;;;;;11.05;6.90;;;;;;;12.57;87.69;102111.69;5052562;28;20029;-83
2022/08/29 01:57:18;;;;;;;13.32;7.20;;;;;;;12.51;87.80;102105.00;5052762;28;20021;-82
2022/08/29 01:59:44;;;;;;;13.00;7.85;;;;;;;12.46;88.32;102116.81;5053717;28;20239;-83
2022/08/29 02:02:18;;;;;;;12.57;7.90;;;;;;;12.43;88.71;102115.19;5050852;28;20107;-82
2022/08/29 02:04:46;;;;;;;9.70;7.43;;;;;;;12.43;88.69;102123.13;5052016;28;20487;-82
2022/08/29 02:07:12;;;;;;;14.07;8.18;;;;;;;12.41;87.85;102125.00;5049777;28;20139;-83
2022/08/29 02:09:38;;;;;;;12.75;7.72;;;;;;;12.36;87.76;102116.50;5051175;28;20029;-82
2022/08/29 02:12:06;;;;;;;14.18;7.63;;;;;;;12.34;88.51;102113.09;5051076;28;20036;-83
2022/08/29 02:14:35;;;;;;;12.55;7.68;;;;;;;12.31;88.30;102113.28;5048674;28;20078;-83
2022/08/29 02:17:04;;;;;;;10.95;8.02;;;;;;;12.30;88.94;102114.22;5050272;28;20025;-83
2022/08/29 02:19:31;;;;;;;14.98;9.07;;;;;;;12.26;88.77;102119.78;5051177;28;20024;-83
2022/08/29 02:22:01;;;;;;;10.57;7.75;;;;;;;12.23;88.92;102124.31;5050895;28;20143;-78
2022/08/29 02:24:27;;;;;;;11.55;7.88;;;;;;;12.19;89.01;102121.97;5050888;28;20557;-78
2022/08/29 02:26:54;;;;;;;12.65;7.15;;;;;;;12.17;89.21;102122.06;5049995;28;20056;-78
2022/08/29 02:29:20;;;;;;;12.35;7.30;;;;;;;12.16;89.08;102122.16;5049701;28;20033;-78
2022/08/29 02:31:46;;;;;;;12.45;7.78;;;;;;;12.12;88.87;102133.81;5050059;28;20029;-78
2022/08/29 02:34:11;;;;;;;13.68;7.22;;;;;;;12.12;89.30;102129.41;5050676;28;20071;-78
2022/08/29 02:36:37;;;;;;;13.50;8.15;;;;;;;12.10;89.30;102135.72;5048953;28;20119;-78
2022/08/29 02:39:03;;;;;;;10.57;7.75;;;;;;;12.07;89.50;102125.34;5048643;28;20066;-78
2022/08/29 02:41:29;;;;;;;11.60;7.63;;;;;;;12.07;89.68;102127.97;5051026;28;20023;-78
2022/08/29 02:43:55;;;;;;;12.50;7.13;;;;;;;12.11;89.25;102132.13;5050143;28;20021;-82
2022/08/29 02:46:20;;;;;;;11.38;8.13;;;;;;;12.06;89.38;102137.69;5051034;28;20068;-78
2022/08/29 02:48:46;;;;;;;13.25;7.68;;;;;;;12.05;89.96;102135.13;5052452;28;20017;-83
2022/08/29 02:51:21;;;;;;;15.02;8.23;;;;;;;12.02;90.36;102138.81;5049514;28;20314;-82
2022/08/29 02:53:47;;;;;;;11.93;7.70;;;;;;;12.02;90.07;102137.97;5050180;28;20059;-78
2022/08/29 02:56:13;;;;;;;11.18;7.22;;;;;;;12.00;90.19;102139.81;5052032;28;20056;-82
2022/08/29 02:58:39;;;;;;;11.40;7.07;;;;;;;12.00;90.45;102139.81;5050954;28;20069;-82
2022/08/29 03:01:04;;;;;;;11.57;7.40;;;;;;;12.03;89.79;102137.03;5051055;28;20032;-82
2022/08/29 03:03:31;;;;;;;14.23;7.72;;;;;;;11.96;90.72;102135.66;5050246;28;20024;-82
2022/08/29 03:05:57;;;;;;;11.73;7.35;;;;;;;11.99;90.16;102128.41;5048120;28;20112;-83
2022/08/29 03:08:22;;;;;;;11.93;7.22;;;;;;;11.93;90.16;102131.41;5049834;28;20514;-82
2022/08/29 03:10:48;;;;;;;10.77;6.60;;;;;;;11.95;90.17;102134.81;5050524;28;20378;-82
2022/08/29 03:13:13;;;;;;;10.20;6.95;;;;;;;11.90;90.48;102129.81;5052057;28;20031;-83
2022/08/29 03:15:39;;;;;;;12.10;7.28;;;;;;;11.88;90.62;102136.97;5050526;28;20095;-82
2022/08/29 03:18:05;;;;;;;10.43;6.68;;;;;;;11.87;90.44;102130.00;5049996;28;20044;-81
2022/08/29 03:20:33;;;;;;;10.38;6.70;;;;;;;11.82;90.86;102136.47;5049763;28;20032;-82
2022/08/29 03:22:58;;;;;;;9.60;6.22;;;;;;;11.87;90.26;102130.00;5048304;28;20052;-82
2022/08/29 03:25:24;;;;;;;8.60;5.90;;;;;;;11.82;90.14;102125.94;5050606;28;20083;-82
2022/08/29 03:27:49;;;;;;;10.18;6.80;;;;;;;11.81;90.33;102119.81;5048850;28;20589;-83
2022/08/29 03:30:16;;;;;;;8.50;6.10;;;;;;;11.88;89.71;102123.78;5049357;28;20028;-83
2022/08/29 03:32:41;;;;;;;8.98;6.78;;;;;;;11.85;90.34;102112.56;5048925;28;20637;-83
2022/08/29 03:35:08;;;;;;;11.93;6.35;;;;;;;11.89;90.58;102112.28;5049156;28;20029;-83
2022/08/29 03:37:34;;;;;;;11.00;6.40;;;;;;;11.86;90.26;102117.75;5050560;28;20025;-83
2022/08/29 03:40:00;;;;;;;11.95;6.88;;;;;;;11.76;90.91;102115.72;5046786;28;20118;-82
2022/08/29 03:42:25;;;;;;;10.88;7.10;;;;;;;11.77;91.44;102104.22;5049705;28;20028;-83
2022/08/29 03:44:50;;;;;;;12.73;7.45;;;;;;;11.75;92.52;102095.56;5050102;28;20052;-81
2022/08/29 03:47:16;;;;;;;12.75;7.78;;;;;;;11.72;92.52;102093.94;5048759;28;20626;-81
2022/08/29 03:49:41;;;;;;;12.45;8.00;;;;;;;11.61;93.40;102089.31;5051192;28;20134;-82
2022/08/29 03:52:08;;;;;;;12.23;7.85;;;;;;;11.66;93.67;102090.84;5050086;28;20036;-82
2022/08/29 03:54:34;;;;;;;12.18;7.65;;;;;;;11.69;93.93;102088.88;5050628;28;20890;-82
2022/08/29 03:56:59;;;;;;;14.02;8.23;;;;;;;11.76;94.10;102091.97;5050679;28;20025;-82
2022/08/29 03:59:25;;;;;;;15.65;7.72;;;;;;;11.73;93.22;102089.53;5048573;28;20036;-83
2022/08/29 04:01:50;;;;;;;15.32;8.43;;;;;;;11.68;93.27;102084.53;5049559;28;20442;-82
2022/08/29 04:07:05;;;;;;;15.30;8.75;;;;;;;11.71;93.41;102081.72;5050234;28;20040;-82
2022/08/29 04:09:31;;;;;;;14.57;8.82;;;;;;;11.72;92.75;102083.41;5050344;28;20031;-82
2022/08/29 04:11:59;;;;;;;15.70;8.18;;;;;;;11.76;92.38;102087.56;5049920;28;20028;-82
2022/08/29 04:14:25;;;;;;;16.10;8.82;;;;;;;11.72;92.32;102093.94;5049392;28;20040;-82
2022/08/29 04:16:50;;;;;;;13.75;8.40;;;;;;;11.70;92.18;102095.84;5046996;28;20021;-82
2022/08/29 04:19:17;;;;;;;14.35;8.90;;;;;;;11.68;92.77;102102.13;5047343;28;20398;-82
2022/08/29 04:21:44;;;;;;;20.13;8.32;;;;;;;11.64;92.99;102101.47;5049420;28;20053;-82
2022/08/29 04:24:10;;;;;;;13.27;7.82;;;;;;;11.58;93.56;102097.38;5046951;28;20455;-82
2022/08/29 04:26:35;;;;;;;12.75;7.95;;;;;;;11.57;93.24;102100.94;5048366;28;20045;-83
2022/08/29 04:29:00;;;;;;;13.73;8.20;;;;;;;11.68;92.68;102108.25;5048771;28;20376;-84
2022/08/29 04:31:26;;;;;;;14.25;7.97;;;;;;;11.65;92.44;102102.31;5048402;28;20749;-83
2022/08/29 04:33:54;;;;;;;12.40;7.93;;;;;;;11.66;92.36;102112.78;5046720;28;20112;-82
2022/08/29 04:36:19;;;;;;;14.35;8.98;;;;;;;11.60;93.13;102113.09;5047400;28;20091;-82
2022/08/29 04:38:44;;;;;;;14.88;8.13;;;;;;;11.58;92.85;102113.19;5048346;28;20033;-83
2022/08/29 04:41:14;;;;;;;15.32;8.85;;;;;;;11.59;93.09;102114.03;5048606;28;20024;-83
2022/08/29 04:43:40;;;;;;;12.05;8.40;;;;;;;11.69;92.38;102112.59;5046972;28;20017;-82
2022/08/29 04:46:06;;;;;;;15.60;9.07;;;;;;;11.53;93.31;102117.03;5048069;28;20049;-83
2022/08/29 04:48:31;;;;;;;15.43;9.32;;;;;;;11.52;93.80;102110.06;5047925;28;20044;-82
2022/08/29 04:50:59;;;;;;;13.68;8.50;;;;;;;11.51;94.28;102109.22;5046305;28;20029;-82
2022/08/29 04:53:26;;;;;;;12.48;7.15;;;;;;;11.57;92.87;102115.91;5075873;28;20051;-83
2022/08/29 04:56:08;;;;;;;11.98;7.43;;;;;;;11.50;92.87;102123.34;5030023;28;20060;-82
2022/08/29 04:58:36;;;;;;;13.50;7.45;;;;;;;11.47;92.94;102125.28;5028266;28;20391;-84
2022/08/29 05:01:02;;;;;;;13.30;7.50;;;;;;;11.43;92.91;102123.78;5036793;28;20390;-83
2022/08/29 05:03:28;;;;;;;12.45;8.13;;;;;;;11.41;93.43;102115.09;5050270;28;20017;-83
2022/08/29 05:06:05;;;;;;;12.93;7.20;;;;;;;11.41;93.80;102123.00;5049068;28;20038;-83
2022/08/29 05:08:32;;;;;;;15.52;7.30;;;;;;;11.46;94.20;102118.31;5044168;28;20441;-83
2022/08/29 05:10:57;;;;;;;16.15;7.72;;;;;;;11.48;94.41;102111.19;5049878;28;20155;-83
2022/08/29 05:13:23;;;;;;;12.23;7.47;;;;;;;11.48;94.31;102109.41;5042758;28;20101;-85
2022/08/29 05:15:48;;;;;;;14.07;7.05;;;;;;;11.52;93.30;102117.97;5040725;28;20113;-83
2022/08/29 05:18:16;;;;;;;12.63;7.50;;;;;;;11.51;93.34;102126.81;5049391;28;20029;-82
2022/08/29 05:20:44;;;;;;;12.68;7.15;;;;;;;11.52;93.46;102125.88;5048641;28;20407;-83
2022/08/29 05:23:10;;;;;;;12.60;6.63;;;;;;;11.58;93.13;102128.16;5047663;28;20024;-83
2022/08/29 05:25:35;;;;;;;12.35;6.80;;;;;;;11.64;93.50;102137.53;5047217;28;20028;-83
2022/08/29 05:28:01;;;;;;;12.50;6.68;;;;;;;11.65;93.24;102139.22;5047352;28;20025;-83
2022/08/29 05:30:27;;;;;;;13.98;6.80;;;;;;;11.64;93.60;102138.38;5048314;28;20509;-83
2022/08/29 05:32:53;;;;;;;16.17;7.38;;;;;;;11.73;93.79;102147.53;5039511;28;20716;-83
2022/08/29 05:35:20;;;;;;;10.32;7.03;;;;;;;11.77;93.73;102139.34;5048552;28;20104;-83
2022/08/29 05:37:45;;;;;;;11.50;6.78;;;;;;;11.82;94.19;102145.22;5048600;28;20021;-82
2022/08/29 05:40:12;;;;;;;16.77;6.90;;;;;;;11.83;93.47;102144.28;5047047;28;20877;-82
2022/08/29 05:42:38;;;;;;;11.50;6.30;;;;;;;11.85;93.46;102149.47;5048495;28;20471;-83
2022/08/29 05:45:05;;;;;;;14.57;6.65;;;;;;;11.91;93.25;102147.31;5047882;28;20048;-83
2022/08/29 05:47:30;;;;;;;13.27;5.97;;;;;;;11.96;93.28;102148.84;5047863;28;20037;-83
2022/08/29 05:49:59;;;;;;;10.13;6.15;;;;;;;12.06;93.51;102150.03;5045324;28;20029;-83
2022/08/29 05:52:26;;;;;;;11.00;6.68;;;;;;;12.08;92.94;102153.41;5048041;28;20035;-83
2022/08/29 05:54:54;;;;;;;11.35;6.53;;;;;;;12.14;93.60;102153.03;5047410;28;20112;-84
2022/08/29 05:57:22;;;;;;;12.77;7.10;;;;;;;12.23;93.92;102152.50;5046580;28;20104;-84
2022/08/29 05:59:50;;;;;;;12.48;6.40;;;;;;;12.35;93.71;102149.09;5048299;28;20028;-83
2022/08/29 06:02:17;;;;;;;11.95;6.07;;;;;;;12.43;93.68;102154.78;5046858;28;20909;-83
2022/08/29 06:04:43;;;;;;;14.25;6.43;;;;;;;12.50;93.27;102156.13;5046285;28;20026;-84
2022/08/29 06:07:09;;;;;;;10.13;6.20;;;;;;;12.58;92.94;102168.00;5046388;28;20112;-83
2022/08/29 06:09:36;;;;;;;16.67;6.57;;;;;;;12.60;92.74;102166.09;5048126;28;20025;-83
2022/08/29 06:12:02;;;;;;;12.65;6.95;;;;;;;12.64;92.75;102162.31;5051373;28;20033;-83
2022/08/29 06:14:27;;;;;;;15.48;7.38;;;;;;;12.70;92.50;102162.78;5052120;28;20025;-83
2022/08/29 06:16:54;;;;;;;11.70;6.45;;;;;;;12.77;92.52;102169.38;5050503;28;20378;-82
2022/08/29 06:19:20;;;;;;;11.90;6.82;;;;;;;12.76;92.77;102166.84;5052052;28;20039;-83
2022/08/29 06:21:46;;;;;;;11.40;6.65;;;;;;;12.81;92.21;102173.56;5047951;28;20112;-83
2022/08/29 06:24:11;;;;;;;13.77;7.32;;;;;;;12.86;92.03;102162.72;5047976;28;20219;-83
2022/08/29 06:26:37;;;;;;;13.30;6.90;;;;;;;12.86;92.34;102166.19;5057111;28;20024;-84
2022/08/29 06:29:08;;;;;;;15.57;6.88;;;;;;;12.94;91.05;102178.91;5067474;28;20017;-83
2022/08/29 06:31:33;;;;;;;8.75;6.35;;;;;;;13.00;91.27;102170.59;5054203;28;20017;-80
2022/08/29 06:34:03;;;;;;;10.05;6.75;;;;;;;13.06;91.59;102175.50;5049981;28;20474;-80
2022/08/29 06:36:29;;;;;;;11.50;6.78;;;;;;;13.12;91.23;102169.81;5061897;28;20024;-83
2022/08/29 06:38:56;;;;;;;16.00;6.97;;;;;;;13.13;91.12;102174.16;5061929;28;20034;-84
2022/08/29 06:41:23;;;;;;;13.02;7.05;;;;;;;13.20;91.08;102166.72;5065260;28;20378;-83
2022/08/29 06:43:49;;;;;;;15.85;7.65;;;;;;;13.26;90.77;102176.06;5068345;28;20028;-82
2022/08/29 06:46:24;;;;;;;10.75;6.57;;;;;;;13.40;89.79;102181.31;5072579;28;20021;-83
2022/08/29 06:48:50;;;;;;;13.45;6.80;;;;;;;13.47;89.66;102185.25;5064660;28;20112;-83
2022/08/29 06:51:15;;;;;;;12.35;6.97;;;;;;;13.55;90.30;102192.69;5071280;28;20017;-82
2022/08/29 06:53:40;;;;;;;8.68;6.90;;;;;;;13.70;89.36;102184.63;5073514;28;20016;-83
2022/08/29 06:56:07;;;;;;;14.70;7.25;;;;;;;13.83;87.75;102182.00;5068233;28;20048;-82
2022/08/29 06:58:34;;;;;;;10.73;6.57;;;;;;;13.96;87.49;102176.75;5069148;28;20044;-83
2022/08/29 07:01:06;;;;;;;11.50;7.47;;;;;;;14.09;86.55;102180.28;5066980;28;20112;-84
2022/08/29 07:03:31;;;;;;;13.52;7.30;;;;;;;14.30;85.02;102176.16;5073307;28;20039;-83
2022/08/29 07:05:56;;;;;;;16.00;7.57;;;;;;;14.48;84.04;102189.13;5071457;28;20021;-83
2022/08/29 07:08:22;;;;;;;14.82;7.28;;;;;;;14.77;83.29;102187.09;5073964;28;20049;-83
2022/08/29 07:10:48;;;;;;;12.98;7.40;;;;;;;15.02;81.69;102182.59;5072349;28;20032;-83
2022/08/29 07:13:13;;;;;;;11.60;6.45;;;;;;;15.30;81.08;102172.69;5070679;28;20028;-83
2022/08/29 07:15:39;;;;;;;11.68;6.65;;;;;;;15.61;77.29;102164.22;5055760;28;20021;-84
2022/08/29 07:18:04;;;;;;;11.85;6.63;;;;;;;16.04;74.67;102163.63;5049892;28;20032;-82
2022/08/29 07:20:29;;;;;;;11.30;6.53;;;;;;;16.37;73.53;102167.31;5050968;28;20032;-84
2022/08/29 07:22:55;;;;;;;14.40;7.28;;;;;;;16.67;71.11;102175.59;5045957;28;20499;-83
2022/08/29 07:25:26;;;;;;;12.90;6.57;;;;;;;16.93;69.38;102168.22;5049919;28;20039;-85
2022/08/29 07:27:54;;;;;;;13.35;6.90;;;;;;;17.15;68.23;102170.84;5050785;28;20020;-84
2022/08/29 07:30:20;;;;;;;10.95;5.85;;;;;;;17.40;66.38;102167.03;5032118;28;20037;-84
2022/08/29 07:32:45;;;;;;;11.38;5.68;;;;;;;17.62;64.10;102166.13;5031188;28;20369;-84
2022/08/29 07:35:12;;;;;;;12.57;5.97;;;;;;;17.73;62.97;102162.59;5031039;28;20076;-84
2022/08/29 07:37:38;;;;;;;10.18;5.15;;;;;;;17.79;62.32;102157.59;5031329;28;20479;-84
2022/08/29 07:40:05;;;;;;;10.32;5.35;;;;;;;17.76;61.36;102151.69;5033670;28;20391;-84
2022/08/29 07:42:32;;;;;;;9.98;4.78;;;;;;;17.58;62.07;102147.84;5051015;28;20075;-85
2022/08/29 07:44:57;;;;;;;8.38;4.82;;;;;;;17.59;61.52;102141.56;5049485;28;20052;-85
2022/08/29 07:47:25;;;;;;;10.35;5.15;;;;;;;17.57;62.17;102147.00;5051334;28;20372;-84
2022/08/29 07:49:50;;;;;;;13.13;4.75;;;;;;;17.54;60.38;102157.91;5052048;28;20087;-85
2022/08/29 07:52:16;;;;;;;11.23;5.15;;;;;;;17.50;61.39;102161.81;5049713;28;20532;-83
2022/08/29 07:54:41;;;;;;;8.60;4.97;;;;;;;17.51;62.05;102159.00;5049899;28;20020;-83
2022/08/29 07:57:06;;;;;;;10.00;4.63;;;;;;;17.64;61.45;102158.03;5049683;28;20116;-83
2022/08/29 07:59:32;;;;;;;7.90;4.07;;;;;;;17.83;60.76;102164.38;5050581;28;20029;-84
2022/08/29 08:01:57;;;;;;;9.25;4.80;;;;;;;17.90;60.22;102164.69;5049513;28;20108;-84
2022/08/29 08:04:23;;;;;;;8.57;4.18;;;;;;;17.97;59.37;102165.84;5049762;28;20028;-83
2022/08/29 08:06:48;;;;;;;8.90;4.28;;;;;;;18.08;58.88;102168.47;5050168;28;20017;-83
2022/08/29 08:09:14;;;;;;;8.63;4.18;;;;;;;18.02;58.34;102168.16;5048760;28;20036;-83
2022/08/29 08:11:40;;;;;;;6.85;3.60;;;;;;;17.94;57.71;102160.78;5049934;28;20078;-83
2022/08/29 08:14:05;;;;;;;8.55;3.25;;;;;;;17.87;56.26;102156.97;5048041;28;20620;-83
2022/08/29 08:16:31;;;;;;;7.88;3.83;;;;;;;17.99;57.24;102166.56;5049117;28;20077;-84
2022/08/29 08:18:57;;;;;;;8.93;4.13;;;;;;;18.09;59.73;102156.84;5049469;28;20112;-84
2022/08/29 08:21:23;;;;;;;7.20;4.13;;;;;;;18.21;58.46;102160.28;5049643;28;20092;-83
2022/08/29 08:23:49;;;;;;;9.48;4.00;;;;;;;18.35;58.36;102153.75;5047235;28;20025;-83
2022/08/29 08:26:15;;;;;;;10.52;4.45;;;;;;;18.47;58.38;102152.72;5048934;28;20024;-84
2022/08/29 08:28:41;;;;;;;10.00;3.90;;;;;;;18.53;58.26;102157.53;5047860;28;20028;-84
2022/08/29 08:31:09;;;;;;;9.10;4.40;;;;;;;18.59;57.95;102164.13;5048911;28;20561;-84
2022/08/29 08:33:38;;;;;;;9.98;4.03;;;;;;;18.60;56.26;102169.34;5049034;28;20108;-85
2022/08/29 08:36:15;;;;;;;9.93;4.35;;;;;;;18.52;57.06;102166.50;5047142;28;20086;-84
2022/08/29 08:38:41;;;;;;;6.90;3.90;;;;;;;18.49;58.43;102161.44;5048216;28;20558;-83
2022/08/29 08:41:31;;;;;;;13.10;4.45;;;;;;;18.35;58.24;102164.41;5049103;28;20035;-84
2022/08/29 08:44:12;;;;;;;9.18;3.90;;;;;;;18.33;57.81;102163.72;5048656;28;20021;-84
2022/08/29 08:46:54;;;;;;;10.38;4.28;;;;;;;18.43;59.46;102156.63;5047478;28;20103;-83
2022/08/29 08:49:19;;;;;;;9.02;4.75;;;;;;;18.46;59.27;102148.38;5050270;28;20024;-83
2022/08/29 08:51:57;;;;;;;10.73;4.05;;;;;;;18.52;58.76;102160.31;5048151;28;20055;-84
2022/08/29 08:54:25;;;;;;;12.52;4.72;;;;;;;18.58;58.34;102154.44;5050442;28;20037;-83
2022/08/29 08:57:00;;;;;;;10.75;4.55;;;;;;;18.40;57.67;102151.53;5050930;28;20053;-83
2022/08/29 08:59:41;;;;;;;7.30;3.92;;;;;;;18.47;58.90;102163.38;5051247;28;20025;-81
2022/08/29 09:02:37;;;;;;;7.95;4.03;;;;;;;18.61;59.98;102165.69;5049608;28;20024;-85
2022/08/29 09:05:21;;;;;;;9.25;3.95;;;;;;;18.65;56.26;102164.47;5047711;28;20029;-84
2022/08/29 09:08:04;;;;;;;7.22;3.92;;;;;;;18.64;57.20;102165.44;5049377;28;20025;-86
2022/08/29 09:10:51;;;;;;;8.43;4.05;;;;;;;18.77;58.10;102165.22;5048806;28;20025;-86
2022/08/29 09:13:22;;;;;;;8.50;4.20;;;;;;;18.76;55.18;102158.19;5047075;28;20033;-85
2022/08/29 09:15:52;;;;;;;8.65;3.80;;;;;;;18.73;54.43;102167.31;5048931;28;20033;-84
2022/08/29 09:18:35;;;;;;;11.80;4.53;;;;;;;18.67;54.25;102178.50;5047661;28;20483;-85
2022/08/29 09:21:15;;;;;;;14.82;4.75;;;;;;;18.57;54.72;102174.94;5047578;28;20029;-84
2022/08/29 09:23:44;;;;;;;8.60;3.92;;;;;;;18.59;54.66;102172.97;5047130;28;20048;-84
2022/08/29 09:26:18;;;;;;;9.15;4.60;;;;;;;18.62;55.36;102175.41;5047853;28;20029;-88
2022/08/29 09:28:44;;;;;;;9.07;4.55;;;;;;;18.77;54.88;102171.41;5047536;28;20131;-86
2022/08/29 09:31:20;;;;;;;6.75;4.35;;;;;;;18.79;57.31;102177.44;5048001;28;20021;-86
2022/08/29 09:34:08;;;;;;;12.15;5.03;;;;;;;18.87;58.03;102181.28;5027966;28;20562;-86
2022/08/29 09:36:50;;;;;;;10.48;4.82;;;;;;;18.85;56.55;102183.25;5028403;28;20029;-87
2022/08/29 09:39:15;;;;;;;9.70;4.38;;;;;;;18.83;57.60;102179.88;5059342;28;20474;-86
2022/08/29 09:41:42;;;;;;;10.45;5.75;;;;;;;18.69;57.82;102184.56;5028769;28;20021;-87
2022/08/29 09:44:13;;;;;;;8.95;4.65;;;;;;;18.72;59.28;102173.63;5031837;28;20055;-83
2022/08/29 09:46:38;;;;;;;12.20;5.43;;;;;;;18.64;57.18;102168.13;5044489;28;20111;-81
2022/08/29 09:49:04;;;;;;;11.95;4.90;;;;;;;18.63;57.79;102173.59;5047575;28;20112;-81
2022/08/29 09:51:37;;;;;;;10.27;3.92;;;;;;;18.62;55.93;102170.06;5049005;28;20111;-81
2022/08/29 09:54:13;;;;;;;;;;;;;;;18.73;56.56;102175.31;5046945;28;20025;-81
2022/08/29 09:56:48;;;;;;;9.80;4.05;;;;;;;18.69;54.66;102173.88;5079862;28;19967;-87
2022/08/29 09:59:48;;;;;;;8.85;4.70;;;;;;;18.95;55.12;102174.28;5048164;28;20035;-80
2022/08/29 10:02:19;;;;;;;11.55;4.15;;;;;;;18.94;53.74;102161.09;5040069;28;20033;-81
2022/08/29 10:04:53;;;;;;;10.77;4.13;;;;;;;18.96;55.38;102159.13;5042138;28;20075;-81
2022/08/29 10:07:23;;;;;;;11.18;4.90;;;;;;;18.88;56.87;102156.28;5035586;28;20042;-81
2022/08/29 10:10:13;;;;;;;11.30;5.30;;;;;;;18.97;58.65;102171.47;5050230;28;20474;-81
2022/08/29 10:12:55;;;;;;;7.45;4.55;;;;;;;19.08;56.38;102176.69;5032321;28;20029;-81
2022/08/29 10:15:25;;;;;;;10.82;4.78;;;;;;;19.23;54.22;102161.16;5032656;28;20026;-81
2022/08/29 10:18:19;;;;;;;11.15;4.43;;;;;;;19.42;54.86;102167.38;5053069;28;20017;-82
2022/08/29 10:20:50;;;;;;;12.48;4.75;;;;;;;19.32;53.03;102171.84;5065149;28;20033;-82
2022/08/29 10:23:35;;;;;;;17.55;4.68;;;;;;;19.16;53.63;102176.84;5062217;28;20386;-82
2022/08/29 10:26:08;;;;;;;8.20;4.35;;;;;;;19.04;53.33;102173.47;5067155;28;20036;-80
2022/08/29 10:28:41;;;;;;;9.32;4.60;;;;;;;19.38;54.01;102165.97;5071470;28;20051;-81
2022/08/29 10:31:16;;;;;;;9.40;4.22;;;;;;;19.75;52.85;102156.47;5069652;28;20037;-80
2022/08/29 10:33:54;;;;;;;10.82;4.30;;;;;;;19.98;52.10;102150.66;5049300;28;20038;-81
2022/08/29 10:36:35;;;;;;;8.23;4.68;;;;;;;20.26;52.52;102146.25;5064175;28;20008;-81
2022/08/29 10:39:12;;;;;;;14.07;4.72;;;;;;;20.23;50.69;102148.38;5067977;28;20115;-80
2022/08/29 10:41:59;;;;;;;7.20;4.40;;;;;;;20.46;50.84;102148.91;5071525;28;20024;-82
2022/08/29 10:44:30;;;;;;;10.60;4.50;;;;;;;20.57;49.56;102149.56;5067698;28;20068;-81
2022/08/29 10:47:15;;;;;;;7.00;4.72;;;;;;;20.72;49.74;102151.75;5067418;28;20029;-81
2022/08/29 10:50:02;;;;;;;10.02;4.43;;;;;;;20.95;49.51;102140.50;5070842;28;20031;-81
2022/08/29 10:52:59;;;;;;;9.00;4.53;;;;;;;21.21;49.87;102135.28;5057163;28;20013;-82
2022/08/29 10:55:40;;;;;;;8.27;5.10;;;;;;;21.13;49.42;102131.66;5052587;28;20033;-81
2022/08/29 10:58:10;;;;;;;8.20;4.75;;;;;;;21.23;48.45;102129.81;5049880;28;20365;-82
2022/08/29 11:00:42;;;;;;;8.52;5.07;;;;;;;21.24;48.46;102126.97;5051281;28;20044;-82
2022/08/29 11:03:34;;;;;;;11.30;4.93;;;;;;;21.48;49.87;102120.16;5083586;28;20018;-81
2022/08/29 11:06:12;;;;;;;10.00;5.20;;;;;;;21.41;48.17;102116.41;5051233;28;20041;-83
2022/08/29 11:08:54;;;;;;;12.27;5.50;;;;;;;21.34;48.37;102115.34;5062504;28;20310;-82
2022/08/29 11:11:22;;;;;;;8.13;5.05;;;;;;;21.33;47.63;102119.03;5073018;28;20032;-84
2022/08/29 11:14:21;;;;;;;8.45;4.93;;;;;;;21.47;49.47;102110.44;5072593;28;20051;-85
2022/08/29 11:16:50;;;;;;;8.82;4.35;;;;;;;21.81;47.54;102119.44;5067930;28;20047;-84
2022/08/29 11:19:28;;;;;;;8.05;4.55;;;;;;;21.95;46.95;102119.88;5071026;28;20021;-84
2022/08/29 11:22:05;;;;;;;12.93;4.70;;;;;;;21.83;46.70;102117.44;5071996;28;20040;-85
2022/08/29 11:24:34;;;;;;;9.25;4.32;;;;;;;21.82;46.84;102102.38;5067722;28;20017;-85
2022/08/29 11:27:15;;;;;;;8.95;4.45;;;;;;;21.68;47.71;102102.09;5070233;28;20035;-85
2022/08/29 11:29:53;;;;;;;9.05;4.40;;;;;;;21.51;46.26;102095.75;5085444;28;20052;-85
2022/08/29 11:32:34;;;;;;;7.85;4.32;;;;;;;21.68;46.64;102094.06;5052119;28;20020;-84